Terminal Aerodrome Forecast
Issued by NWS

Home | Current Version | Previous Version | Text Only | Print | Product List | Glossary On
Versions: 1 2 3 4 5 6 7 8 9 10 11 12 13 14 15 16 17 18
000
FTUS43 KPAH 232300 RRA
TAFCGI
TAF
KCGI 232341Z 2400/2424 VRB04KT 4SM -RA BR BKN005 OVC020
     FM240230 20010KT P6SM BKN007 OVC020
     FM240900 25020G29KT P6SM OVC010
     FM241300 26018G28KT P6SM BKN035=

USA.gov is the U.S. government's official web portal to all federal, state and local government web resources and services.